Sultan Atasoy — TCYG9 — position and weather

sailwx.info

Track history (hours):
 
Tides and Currents Weather Stations Pressure Air Temp Water Temp Dewpoint Dewpoint Depression Visibility Wind Speed Wind Dir Waves Ship Positions

Sultan Atasoy

Last reported at 2015-Apr-18 20:11 UTC. Time now 2015-Apr-18 23:32 UTC.
Position N 43°24' E 003°43'.

Length 109 m; draft 4.3 m.

Type: Ship. MMSI: 271040963.

Date/timePositionNaut miles runAvg speedWind from/ knotsBaromVisibWave heightAir tempDewpointWater temp
2015-Apr-18 20:11N 43°24' E 003°43'0 0.0
2015-Apr-18 18:30N 43°24' E 003°43'0 0.0
2015-Apr-18 17:26N 43°24' E 003°43'0 0.0
2015-Apr-18 16:32N 43°24' E 003°43'0 0.0
2015-Apr-18 13:32N 43°24' E 003°43'0 0.0
2015-Apr-18 12:32N 43°24' E 003°43'0 0.0
2015-Apr-18 11:29N 43°24' E 003°43'0 0.0
2015-Apr-18 02:32N 43°24' E 003°43'0 0.0
2015-Apr-17 21:04N 43°24' E 003°43'0 0.0
2015-Apr-17 20:28N 43°24' E 003°43'0 0.0
2015-Apr-17 19:09N 43°24' E 003°43'0 0.0
2015-Apr-17 18:33N 43°24' E 003°43'0 0.0
2015-Apr-17 17:03N 43°24' E 003°43'0 0.0
2015-Apr-17 16:33N 43°24' E 003°43'0 0.0
2015-Apr-17 13:11N 43°24' E 003°43'0 0.0
2015-Apr-17 10:27N 43°24' E 003°43'0 0.0
2015-Apr-17 09:33N 43°24' E 003°43'0 0.0
2015-Apr-17 08:26N 43°24' E 003°43'0 0.0
2015-Apr-17 07:33N 43°24' E 003°43'0 0.0
2015-Apr-17 06:18N 43°24' E 003°43'0 0.0
2015-Apr-17 05:33N 43°24' E 003°43'0 0.0
2015-Apr-17 02:34N 43°24' E 003°43'0 0.0
2015-Apr-17 01:33N 43°24' E 003°43'0 0.0
2015-Apr-17 00:33N 43°24' E 003°43'0 0.0
2015-Apr-16 23:34N 43°24' E 003°43'0 0.0
2015-Apr-16 22:33N 43°24' E 003°43'0 0.0
2015-Apr-16 21:33N 43°24' E 003°43'0 0.0
2015-Apr-16 20:33N 43°24' E 003°43'0 0.0
2015-Apr-16 19:33N 43°24' E 003°43'0 0.0
2015-Apr-16 18:33N 43°24' E 003°43'0 0.0
2015-Apr-16 17:33N 43°24' E 003°43'0 0.0
2015-Apr-16 16:26N 43°24' E 003°43'0 0.0
2015-Apr-16 15:29N 43°24' E 003°43'0 0.0
2015-Apr-16 14:29N 43°24' E 003°43'0 0.0
2015-Apr-16 13:29N 43°24' E 003°43'0 0.0
2015-Apr-16 12:09N 43°24' E 003°43'0 0.0
2015-Apr-16 11:24N 43°24' E 003°43'0 0.0
2015-Apr-16 10:27N 43°24' E 003°43'0 0.0
2015-Apr-16 09:26N 43°24' E 003°43'0 0.5
2015-Apr-16 08:32N 43°24' E 003°43'8 7.9
2015-Apr-16 07:28N 43°18' E 003°51'1211.6
2015-Apr-16 06:24N 43°05' E 003°48'1311.2
2015-Apr-16 05:14N 42°52' E 003°47'2211.5
2015-Apr-16 03:19N 42°30' E 003°44'6010.1
2015-Apr-15 21:24N 41°40' E 003°00'810.0
2015-Apr-15 20:33N 41°34' E 002°52'2410.9
2015-Apr-15 18:22N 41°21' E 002°25'910.6
2015-Apr-15 17:33N 41°17' E 002°15'5 5.2
2015-Apr-15 16:33N 41°21' E 002°10'0 0.0
2015-Apr-15 14:26N 41°21' E 002°10'0 0.0
2015-Apr-15 12:29N 41°21' E 002°10'0 0.0
2015-Apr-15 10:32N 41°21' E 002°10'0 0.0
2015-Apr-15 09:32N 41°21' E 002°10'0 0.0
2015-Apr-15 07:20N 41°21' E 002°10'0 0.0
2015-Apr-15 05:14N 41°21' E 002°10'0 0.0
2015-Apr-14 23:32N 41°21' E 002°10'0 0.0
2015-Apr-14 22:33N 41°21' E 002°10'0 0.0
2015-Apr-14 21:14N 41°21' E 002°10'0 0.0
2015-Apr-14 18:20N 41°21' E 002°10'0 0.0
2015-Apr-14 17:20N 41°21' E 002°10'0 0.0
2015-Apr-14 16:21N 41°21' E 002°10'0 0.1
2015-Apr-14 13:05N 41°21' E 002°10'2 4.3
2015-Apr-14 12:33N 41°19' E 002°11'1 1.2
2015-Apr-14 11:27N 41°20' E 002°11'0 0.0
2015-Apr-14 10:27N 41°20' E 002°11'0 0.1
2015-Apr-14 09:19N 41°20' E 002°11'6 6.2
2015-Apr-14 08:24N 41°16' E 002°16'910.7
2015-Apr-14 07:33N 41°12' E 002°27'1110.9
2015-Apr-14 06:33N 41°08' E 002°40'1010.0
2015-Apr-14 05:33N 41°03' E 002°52'1010.3
2015-Apr-14 04:33N 40°58' E 003°04'1110.6
2015-Apr-14 03:33N 40°52' E 003°16'1010.3
2015-Apr-14 02:33N 40°47' E 003°28'2010.1
2015-Apr-14 00:33N 40°37' E 003°50'3310.4
2015-Apr-13 21:24N 40°20' E 004°27'1010.0
2015-Apr-13 20:22N 40°14' E 004°39'1011.7
2015-Apr-13 19:29N 40°09' E 004°51'10 9.4
2015-Apr-13 18:27N 40°05' E 005°02'1111.2
2015-Apr-13 17:29N 39°60' E 005°14'1110.1
2015-Apr-13 16:26N 39°55' E 005°27'1210.3
2015-Apr-13 15:18N 39°50' E 005°41'1010.6
2015-Apr-13 14:19N 39°45' E 005°53'910.7
2015-Apr-13 13:30N 39°41' E 006°03'1010.4
2015-Apr-13 12:30N 39°36' E 006°15'27710.5
2015-Apr-12 10:08N 37°23' E 011°26'810.1
2015-Apr-12 09:19N 37°20' E 011°35'810.5
2015-Apr-12 08:33N 37°18' E 011°45'1210.5
2015-Apr-12 07:26N 37°15' E 011°59'2210.3
2015-Apr-12 05:15N 37°08' E 012°26'2910.4
2015-Apr-12 02:30N 37°01' E 013°01'1010.2
2015-Apr-12 01:33N 36°58' E 013°12'1110.2
2015-Apr-12 00:28N 36°55' E 013°26'910.3
2015-Apr-11 23:33N 36°53' E 013°37'1010.4
2015-Apr-11 22:33N 36°50' E 013°50'1010.4
2015-Apr-11 21:33N 36°47' E 014°02'1010.4
2015-Apr-11 20:33N 36°44' E 014°14'1010.2
2015-Apr-11 19:33N 36°42' E 014°27'1410.3
2015-Apr-11 18:11N 36°38' E 014°44'483 9.5
2015-Apr-09 15:33N 37°21' E 024°46'9 9.0
2015-Apr-09 14:34N 37°21' E 024°57'10 9.8
2015-Apr-09 13:33N 37°26' E 025°08'1010.0
2015-Apr-09 12:33N 37°33' E 025°17'1010.4
2015-Apr-09 11:33N 37°43' E 025°21'1110.8
2015-Apr-09 10:33N 37°53' E 025°26'  
Track history (hours):
 
Tides and Currents Weather Stations Pressure Air Temp Water Temp Dewpoint Dewpoint Depression Visibility Wind Speed Wind Dir Waves Ship Positions

Sultan Atasoy

Last reported at 2015-Apr-18 20:11 UTC. Time now 2015-Apr-18 23:32 UTC.
Position N 43°24' E 003°43'.

Length 109 m; draft 4.3 m.

Type: Ship. MMSI: 271040963.

Date/timePositionNaut miles runAvg speedWind from/ knotsBaromVisibWave heightAir tempDewpointWater temp
2015-Apr-18 20:11N 43°24' E 003°43'0 0.0
2015-Apr-18 18:30N 43°24' E 003°43'0 0.0
2015-Apr-18 17:26N 43°24' E 003°43'0 0.0
2015-Apr-18 16:32N 43°24' E 003°43'0 0.0
2015-Apr-18 13:32N 43°24' E 003°43'0 0.0
2015-Apr-18 12:32N 43°24' E 003°43'0 0.0
2015-Apr-18 11:29N 43°24' E 003°43'0 0.0
2015-Apr-18 02:32N 43°24' E 003°43'0 0.0
2015-Apr-17 21:04N 43°24' E 003°43'0 0.0
2015-Apr-17 20:28N 43°24' E 003°43'0 0.0
2015-Apr-17 19:09N 43°24' E 003°43'0 0.0
2015-Apr-17 18:33N 43°24' E 003°43'0 0.0
2015-Apr-17 17:03N 43°24' E 003°43'0 0.0
2015-Apr-17 16:33N 43°24' E 003°43'0 0.0
2015-Apr-17 13:11N 43°24' E 003°43'0 0.0
2015-Apr-17 10:27N 43°24' E 003°43'0 0.0
2015-Apr-17 09:33N 43°24' E 003°43'0 0.0
2015-Apr-17 08:26N 43°24' E 003°43'0 0.0
2015-Apr-17 07:33N 43°24' E 003°43'0 0.0
2015-Apr-17 06:18N 43°24' E 003°43'0 0.0
2015-Apr-17 05:33N 43°24' E 003°43'0 0.0
2015-Apr-17 02:34N 43°24' E 003°43'0 0.0
2015-Apr-17 01:33N 43°24' E 003°43'0 0.0
2015-Apr-17 00:33N 43°24' E 003°43'0 0.0
2015-Apr-16 23:34N 43°24' E 003°43'0 0.0
2015-Apr-16 22:33N 43°24' E 003°43'0 0.0
2015-Apr-16 21:33N 43°24' E 003°43'0 0.0
2015-Apr-16 20:33N 43°24' E 003°43'0 0.0
2015-Apr-16 19:33N 43°24' E 003°43'0 0.0
2015-Apr-16 18:33N 43°24' E 003°43'0 0.0
2015-Apr-16 17:33N 43°24' E 003°43'0 0.0
2015-Apr-16 16:26N 43°24' E 003°43'0 0.0
2015-Apr-16 15:29N 43°24' E 003°43'0 0.0
2015-Apr-16 14:29N 43°24' E 003°43'0 0.0
2015-Apr-16 13:29N 43°24' E 003°43'0 0.0
2015-Apr-16 12:09N 43°24' E 003°43'0 0.0
2015-Apr-16 11:24N 43°24' E 003°43'0 0.0
2015-Apr-16 10:27N 43°24' E 003°43'0 0.0
2015-Apr-16 09:26N 43°24' E 003°43'0 0.5
2015-Apr-16 08:32N 43°24' E 003°43'8 7.9
2015-Apr-16 07:28N 43°18' E 003°51'1211.6
2015-Apr-16 06:24N 43°05' E 003°48'1311.2
2015-Apr-16 05:14N 42°52' E 003°47'2211.5
2015-Apr-16 03:19N 42°30' E 003°44'6010.1
2015-Apr-15 21:24N 41°40' E 003°00'810.0
2015-Apr-15 20:33N 41°34' E 002°52'2410.9
2015-Apr-15 18:22N 41°21' E 002°25'910.6
2015-Apr-15 17:33N 41°17' E 002°15'5 5.2
2015-Apr-15 16:33N 41°21' E 002°10'0 0.0
2015-Apr-15 14:26N 41°21' E 002°10'0 0.0
2015-Apr-15 12:29N 41°21' E 002°10'0 0.0
2015-Apr-15 10:32N 41°21' E 002°10'0 0.0
2015-Apr-15 09:32N 41°21' E 002°10'0 0.0
2015-Apr-15 07:20N 41°21' E 002°10'0 0.0
2015-Apr-15 05:14N 41°21' E 002°10'0 0.0
2015-Apr-14 23:32N 41°21' E 002°10'0 0.0
2015-Apr-14 22:33N 41°21' E 002°10'0 0.0
2015-Apr-14 21:14N 41°21' E 002°10'0 0.0
2015-Apr-14 18:20N 41°21' E 002°10'0 0.0
2015-Apr-14 17:20N 41°21' E 002°10'0 0.0
2015-Apr-14 16:21N 41°21' E 002°10'0 0.1
2015-Apr-14 13:05N 41°21' E 002°10'2 4.3
2015-Apr-14 12:33N 41°19' E 002°11'1 1.2
2015-Apr-14 11:27N 41°20' E 002°11'0 0.0
2015-Apr-14 10:27N 41°20' E 002°11'0 0.1
2015-Apr-14 09:19N 41°20' E 002°11'6 6.2
2015-Apr-14 08:24N 41°16' E 002°16'910.7
2015-Apr-14 07:33N 41°12' E 002°27'1110.9
2015-Apr-14 06:33N 41°08' E 002°40'1010.0
2015-Apr-14 05:33N 41°03' E 002°52'1010.3
2015-Apr-14 04:33N 40°58' E 003°04'1110.6
2015-Apr-14 03:33N 40°52' E 003°16'1010.3
2015-Apr-14 02:33N 40°47' E 003°28'2010.1
2015-Apr-14 00:33N 40°37' E 003°50'3310.4
2015-Apr-13 21:24N 40°20' E 004°27'1010.0
2015-Apr-13 20:22N 40°14' E 004°39'1011.7
2015-Apr-13 19:29N 40°09' E 004°51'10 9.4
2015-Apr-13 18:27N 40°05' E 005°02'1111.2
2015-Apr-13 17:29N 39°60' E 005°14'1110.1
2015-Apr-13 16:26N 39°55' E 005°27'1210.3
2015-Apr-13 15:18N 39°50' E 005°41'1010.6
2015-Apr-13 14:19N 39°45' E 005°53'910.7
2015-Apr-13 13:30N 39°41' E 006°03'1010.4
2015-Apr-13 12:30N 39°36' E 006°15'27710.5
2015-Apr-12 10:08N 37°23' E 011°26'810.1
2015-Apr-12 09:19N 37°20' E 011°35'810.5
2015-Apr-12 08:33N 37°18' E 011°45'1210.5
2015-Apr-12 07:26N 37°15' E 011°59'2210.3
2015-Apr-12 05:15N 37°08' E 012°26'2910.4
2015-Apr-12 02:30N 37°01' E 013°01'1010.2
2015-Apr-12 01:33N 36°58' E 013°12'1110.2
2015-Apr-12 00:28N 36°55' E 013°26'910.3
2015-Apr-11 23:33N 36°53' E 013°37'1010.4
2015-Apr-11 22:33N 36°50' E 013°50'1010.4
2015-Apr-11 21:33N 36°47' E 014°02'1010.4
2015-Apr-11 20:33N 36°44' E 014°14'1010.2
2015-Apr-11 19:33N 36°42' E 014°27'1410.3
2015-Apr-11 18:11N 36°38' E 014°44'483 9.5
2015-Apr-09 15:33N 37°21' E 024°46'9 9.0
2015-Apr-09 14:34N 37°21' E 024°57'10 9.8
2015-Apr-09 13:33N 37°26' E 025°08'1010.0
2015-Apr-09 12:33N 37°33' E 025°17'1010.4
2015-Apr-09 11:33N 37°43' E 025°21'1110.8
2015-Apr-09 10:33N 37°53' E 025°26'  

Dump ship's entire track history